Time;durP1;ratioP1;P1;durP2;ratioP2;P2;SDS_P1;SDS_P2;PMS_P1;PMS_P2;Temp;Humidity;BMP_temperature;BMP_pressure;BME280_temperature;BME280_humidity;BME280_pressure;Samples;Min_cycle;Max_cycle;Signal;HPM_P1;HPM_P2
2022/07/10 00:01:50;;;;;;;8.27;7.75;;;;;;;;;;5045258;28;20188;-72
2022/07/10 00:04:16;;;;;;;8.65;8.10;;;;;;;;;;5046463;28;20028;-71
2022/07/10 00:06:42;;;;;;;9.30;8.70;;;;;;;;;;5045988;28;20470;-72
2022/07/10 00:09:08;;;;;;;8.27;7.78;;;;;;;;;;5045023;28;20033;-71
2022/07/10 00:11:33;;;;;;;8.82;8.23;;;;;;;;;;5046082;28;20024;-72
2022/07/10 00:13:59;;;;;;;8.95;8.38;;;;;;;;;;5045539;28;20021;-71
2022/07/10 00:16:24;;;;;;;10.02;9.32;;;;;;;;;;5047326;28;20609;-71
2022/07/10 00:18:50;;;;;;;8.63;8.02;;;;;;;;;;5048912;28;20111;-71
2022/07/10 00:21:16;;;;;;;8.45;7.93;;;;;;;;;;5049723;28;20057;-71
2022/07/10 00:23:42;;;;;;;9.65;9.05;;;;;;;;;;5049331;28;20052;-71
2022/07/10 00:26:10;;;;;;;9.45;8.85;;;;;;;;;;5049397;28;20531;-70
2022/07/10 00:28:36;;;;;;;9.15;8.55;;;;;;;;;;5047496;28;20482;-70
2022/07/10 00:31:02;;;;;;;8.25;7.75;;;;;;;;;;5048856;28;20044;-71
2022/07/10 00:33:27;;;;;;;8.32;7.78;;;;;;;;;;5047202;28;20582;-73
2022/07/10 00:35:53;;;;;;;8.05;7.55;;;;;;;;;;5048467;28;20035;-73
2022/07/10 00:38:18;;;;;;;7.55;7.05;;;;;;;;;;5048475;28;20067;-72
2022/07/10 00:40:44;;;;;;;8.27;7.78;;;;;;;;;;5047560;28;20033;-72
2022/07/10 00:43:09;;;;;;;8.25;7.75;;;;;;;;;;5049641;28;20048;-72
2022/07/10 00:45:35;;;;;;;8.38;7.88;;;;;;;;;;5048681;28;20124;-71
2022/07/10 00:48:00;;;;;;;7.93;7.43;;;;;;;;;;5048981;28;20060;-71
2022/07/10 00:50:26;;;;;;;9.50;8.90;;;;;;;;;;5047513;28;20040;-70
2022/07/10 00:52:51;;;;;;;9.77;9.18;;;;;;;;;;5048592;28;20028;-71
2022/07/10 00:55:17;;;;;;;10.18;9.57;;;;;;;;;;5049175;28;20550;-72
2022/07/10 00:57:43;;;;;;;9.27;8.68;;;;;;;;;;5048355;28;20083;-72
2022/07/10 01:00:11;;;;;;;8.35;7.85;;;;;;;;;;5049237;28;20474;-72
2022/07/10 01:02:40;;;;;;;8.23;7.72;;;;;;;;;;5048237;28;20454;-68
2022/07/10 01:05:06;;;;;;;8.40;7.90;;;;;;;;;;5047975;28;20041;-68
2022/07/10 01:07:31;;;;;;;8.43;7.93;;;;;;;;;;5048225;28;20049;-68
2022/07/10 01:09:59;;;;;;;8.30;7.70;;;;;;;;;;5048686;28;20063;-68
2022/07/10 01:12:25;;;;;;;7.55;7.05;;;;;;;;;;5048056;28;20419;-67
2022/07/10 01:14:51;;;;;;;12.20;11.40;;;;;;;;;;5048618;28;20033;-68
2022/07/10 01:17:17;;;;;;;41.53;39.00;;;;;;;;;;5048793;28;20067;-69
2022/07/10 01:19:42;;;;;;;24.08;22.45;;;;;;;;;;5047116;28;20025;-68
2022/07/10 01:22:07;;;;;;;57.45;54.55;;;;;;;;;;5047505;28;20029;-68
2022/07/10 01:24:33;;;;;;;37.08;35.08;;;;;;;;;;5048035;28;20206;-69
2022/07/10 01:26:58;;;;;;;62.72;59.20;;;;;;;;;;5046710;28;20087;-69
2022/07/10 01:29:25;;;;;;;56.75;53.85;;;;;;;;;;5047910;28;20040;-68
2022/07/10 01:31:50;;;;;;;74.80;71.05;;;;;;;;;;5046496;28;20040;-68
2022/07/10 01:34:16;;;;;;;83.13;78.93;;;;;;;;;;5048447;28;20024;-68
2022/07/10 01:36:41;;;;;;;76.88;72.97;;;;;;;;;;5048117;28;20291;-68
2022/07/10 01:39:07;;;;;;;72.78;69.10;;;;;;;;;;5047154;28;20037;-68
2022/07/10 01:41:33;;;;;;;67.43;64.03;;;;;;;;;;5047075;28;20117;-68
2022/07/10 01:43:58;;;;;;;55.90;53.05;;;;;;;;;;5045935;28;20040;-68
2022/07/10 01:46:24;;;;;;;63.20;59.97;;;;;;;;;;5047797;28;20045;-68
2022/07/10 01:48:49;;;;;;;67.45;64.05;;;;;;;;;;5047549;28;20033;-68
2022/07/10 01:51:15;;;;;;;58.58;55.60;;;;;;;;;;5048530;28;20443;-68
2022/07/10 01:53:40;;;;;;;63.97;60.72;;;;;;;;;;5046670;28;20032;-68
2022/07/10 01:56:08;;;;;;;63.40;60.20;;;;;;;;;;5047904;28;20025;-68
2022/07/10 01:58:34;;;;;;;71.93;68.28;;;;;;;;;;5046728;28;20536;-68
2022/07/10 02:01:00;;;;;;;68.85;65.38;;;;;;;;;;5047128;28;20107;-68
2022/07/10 02:06:09;;;;;;;42.92;40.70;;;;;;;;;;5046811;28;20040;-68
2022/07/10 02:08:34;;;;;;;47.28;44.85;;;;;;;;;;5047702;28;20041;-68
2022/07/10 02:11:00;;;;;;;40.63;38.50;;;;;;;;;;5047136;28;20522;-68
2022/07/10 02:13:27;;;;;;;44.67;42.38;;;;;;;;;;5045797;28;20514;-68
2022/07/10 02:15:53;;;;;;;60.95;57.88;;;;;;;;;;5047348;28;20059;-68
2022/07/10 02:18:19;;;;;;;53.90;51.15;;;;;;;;;;5046796;28;20056;-68
2022/07/10 02:20:44;;;;;;;54.63;51.88;;;;;;;;;;5047459;28;20087;-68
2022/07/10 02:23:10;;;;;;;81.40;77.30;;;;;;;;;;5046433;28;20059;-69
2022/07/10 02:25:35;;;;;;;101.47;96.43;;;;;;;;;;5046981;28;20043;-69
2022/07/10 02:28:00;;;;;;;93.63;88.95;;;;;;;;;;5047498;28;20116;-69
2022/07/10 02:30:26;;;;;;;105.32;100.07;;;;;;;;;;5046207;28;20033;-69
2022/07/10 02:32:51;;;;;;;97.25;92.40;;;;;;;;;;5047101;28;20039;-69
2022/07/10 02:35:17;;;;;;;88.32;83.88;;;;;;;;;;5046649;28;20108;-69
2022/07/10 02:37:42;;;;;;;81.75;77.57;;;;;;;;;;5046594;28;20036;-69
2022/07/10 02:40:08;;;;;;;97.90;92.97;;;;;;;;;;5044339;28;20288;-70
2022/07/10 02:42:33;;;;;;;78.85;74.90;;;;;;;;;;5046655;28;20033;-70
2022/07/10 02:44:59;;;;;;;68.00;64.60;;;;;;;;;;5046679;28;20116;-70
2022/07/10 02:47:24;;;;;;;76.60;72.68;;;;;;;;;;5046891;28;20557;-70
2022/07/10 02:49:49;;;;;;;67.60;64.18;;;;;;;;;;5045768;28;20119;-70
2022/07/10 02:52:15;;;;;;;61.25;58.05;;;;;;;;;;5046819;28;20300;-69
2022/07/10 02:54:40;;;;;;;60.08;57.08;;;;;;;;;;5046149;28;20413;-69
2022/07/10 02:57:06;;;;;;;59.65;56.65;;;;;;;;;;5027943;28;20033;-69
2022/07/10 02:59:31;;;;;;;49.47;46.97;;;;;;;;;;5045356;28;20052;-70
2022/07/10 03:01:56;;;;;;;56.45;53.60;;;;;;;;;;5046676;28;20044;-69
2022/07/10 03:04:22;;;;;;;52.03;49.38;;;;;;;;;;5046228;28;20088;-72
2022/07/10 03:06:47;;;;;;;50.78;48.17;;;;;;;;;;5045257;28;20393;-70
2022/07/10 03:09:12;;;;;;;50.45;47.90;;;;;;;;;;5044588;28;20032;-70
2022/07/10 03:11:38;;;;;;;78.47;74.50;;;;;;;;;;5046326;28;20112;-71
2022/07/10 03:14:03;;;;;;;95.47;90.70;;;;;;;;;;5028634;28;20029;-70
2022/07/10 03:16:29;;;;;;;98.47;93.55;;;;;;;;;;5045996;28;20175;-69
2022/07/10 03:18:54;;;;;;;52.53;49.83;;;;;;;;;;5046153;28;20520;-70
2022/07/10 03:21:20;;;;;;;50.47;47.90;;;;;;;;;;5046399;28;20029;-69
2022/07/10 03:23:45;;;;;;;93.18;88.50;;;;;;;;;;5046453;28;20039;-69
2022/07/10 03:26:10;;;;;;;64.60;61.38;;;;;;;;;;5045041;28;20041;-70
2022/07/10 03:28:36;;;;;;;83.95;79.72;;;;;;;;;;5046290;28;20467;-70
2022/07/10 03:31:02;;;;;;;131.90;125.30;;;;;;;;;;5045890;28;20029;-69
2022/07/10 03:33:28;;;;;;;130.15;123.63;;;;;;;;;;5045506;28;20084;-69
2022/07/10 03:35:54;;;;;;;108.35;102.93;;;;;;;;;;5045754;28;20021;-69
2022/07/10 03:38:19;;;;;;;139.13;132.23;;;;;;;;;;5044974;28;20454;-70
2022/07/10 03:40:47;;;;;;;121.57;115.53;;;;;;;;;;5023263;28;20125;-70
2022/07/10 03:43:13;;;;;;;147.23;139.90;;;;;;;;;;5045292;28;20146;-69
2022/07/10 03:45:38;;;;;;;153.18;145.55;;;;;;;;;;5044642;28;20261;-70
2022/07/10 03:48:04;;;;;;;146.85;139.63;;;;;;;;;;5044182;28;20033;-69
2022/07/10 03:50:29;;;;;;;144.20;137.05;;;;;;;;;;5027252;28;20033;-67
2022/07/10 03:52:54;;;;;;;123.35;117.22;;;;;;;;;;5049182;28;20040;-68
2022/07/10 03:55:20;;;;;;;143.77;136.63;;;;;;;;;;5048835;28;20032;-68
2022/07/10 03:57:54;;;;;;;131.45;124.95;;;;;;;;;;5047481;28;20029;-69
2022/07/10 04:00:26;;;;;;;144.65;137.48;;;;;;;;;;5047940;28;20021;-68
2022/07/10 04:02:57;;;;;;;138.80;131.95;;;;;;;;;;5048476;28;20067;-70
2022/07/10 04:05:22;;;;;;;135.27;128.57;;;;;;;;;;5048616;28;20486;-70
2022/07/10 04:07:48;;;;;;;116.55;110.80;;;;;;;;;;5047139;28;20101;-69
2022/07/10 04:10:13;;;;;;;99.43;94.50;;;;;;;;;;5046686;28;20366;-69
2022/07/10 04:12:38;;;;;;;124.15;118.05;;;;;;;;;;5047725;28;20444;-68
2022/07/10 04:15:04;;;;;;;137.80;130.95;;;;;;;;;;5047906;28;20481;-68
2022/07/10 04:17:32;;;;;;;125.57;119.35;;;;;;;;;;5048291;28;20541;-67
2022/07/10 04:20:00;;;;;;;101.78;96.75;;;;;;;;;;5048846;28;20031;-67
2022/07/10 04:22:27;;;;;;;117.85;112.03;;;;;;;;;;5049192;28;20040;-68
2022/07/10 04:24:53;;;;;;;91.88;87.38;;;;;;;;;;5048400;28;20029;-68
2022/07/10 04:27:19;;;;;;;80.20;76.22;;;;;;;;;;5045931;28;20187;-75
2022/07/10 04:29:44;;;;;;;83.47;79.38;;;;;;;;;;5047641;28;20565;-76
2022/07/10 04:32:09;;;;;;;77.07;73.25;;;;;;;;;;5047310;28;20025;-72
2022/07/10 04:34:35;;;;;;;100.35;95.22;;;;;;;;;;5047800;28;20590;-68
2022/07/10 04:37:00;;;;;;;93.55;88.95;;;;;;;;;;5048759;28;20029;-68
2022/07/10 04:39:26;;;;;;;90.75;86.25;;;;;;;;;;5046611;28;20115;-68
2022/07/10 04:41:51;;;;;;;100.13;95.18;;;;;;;;;;5047109;28;20036;-68
2022/07/10 04:44:18;;;;;;;89.07;84.63;;;;;;;;;;5047699;28;20021;-68
2022/07/10 04:46:43;;;;;;;68.07;64.68;;;;;;;;;;5047079;28;20094;-68
2022/07/10 04:49:09;;;;;;;84.55;80.38;;;;;;;;;;5046718;28;20417;-68
2022/07/10 04:51:34;;;;;;;68.97;65.55;;;;;;;;;;5046670;28;20244;-68
2022/07/10 04:54:00;;;;;;;98.07;93.22;;;;;;;;;;5047838;28;20094;-68
2022/07/10 04:56:26;;;;;;;55.80;52.72;;;;;;;;;;5047980;28;20028;-68
2022/07/10 04:58:51;;;;;;;93.28;88.68;;;;;;;;;;5047728;28;20439;-68
2022/07/10 05:01:17;;;;;;;108.15;102.80;;;;;;;;;;5048071;28;20498;-68
2022/07/10 05:03:42;;;;;;;89.57;85.18;;;;;;;;;;5045635;28;20029;-68
2022/07/10 05:06:07;;;;;;;70.35;66.85;;;;;;;;;;5047078;28;20474;-69
2022/07/10 05:08:33;;;;;;;73.78;70.10;;;;;;;;;;5047385;28;20033;-68
2022/07/10 05:10:58;;;;;;;81.90;77.85;;;;;;;;;;5048259;28;20052;-69
2022/07/10 05:13:24;;;;;;;84.43;80.20;;;;;;;;;;5048383;28;20025;-68
2022/07/10 05:15:49;;;;;;;81.47;77.40;;;;;;;;;;5047358;28;20079;-69
2022/07/10 05:18:15;;;;;;;83.00;78.88;;;;;;;;;;5047886;28;20021;-68
2022/07/10 05:20:43;;;;;;;106.53;101.28;;;;;;;;;;5045933;28;20427;-68
2022/07/10 05:23:09;;;;;;;102.22;97.20;;;;;;;;;;5048267;28;20021;-68
2022/07/10 05:25:34;;;;;;;89.18;84.72;;;;;;;;;;5046911;28;20340;-69
2022/07/10 05:27:59;;;;;;;118.35;112.50;;;;;;;;;;5047726;28;20036;-68
2022/07/10 05:30:25;;;;;;;115.30;109.60;;;;;;;;;;5045995;28;20028;-69
2022/07/10 05:32:50;;;;;;;105.85;100.60;;;;;;;;;;5047513;28;20804;-70
2022/07/10 05:35:16;;;;;;;59.17;56.15;;;;;;;;;;5047469;28;20043;-70
2022/07/10 05:37:41;;;;;;;85.70;81.38;;;;;;;;;;5045584;28;20021;-70
2022/07/10 05:40:07;;;;;;;48.17;45.72;;;;;;;;;;5047451;28;20419;-70
2022/07/10 05:42:34;;;;;;;103.88;98.68;;;;;;;;;;5047650;28;20078;-72
2022/07/10 05:44:59;;;;;;;109.28;103.88;;;;;;;;;;5046535;28;20352;-69
2022/07/10 05:47:25;;;;;;;99.28;94.38;;;;;;;;;;5046733;28;20099;-70
2022/07/10 05:49:50;;;;;;;106.43;101.22;;;;;;;;;;5047383;28;20032;-71
2022/07/10 05:52:15;;;;;;;92.88;88.32;;;;;;;;;;5047490;28;20025;-69
2022/07/10 05:54:41;;;;;;;24.63;23.33;;;;;;;;;;5046512;28;20501;-70
2022/07/10 05:57:06;;;;;;;35.78;33.92;;;;;;;;;;5047010;28;20021;-69
2022/07/10 05:59:35;;;;;;;131.23;124.75;;;;;;;;;;5045537;28;20424;-68
2022/07/10 06:02:01;;;;;;;73.28;69.63;;;;;;;;;;5046190;28;20043;-68
2022/07/10 06:04:27;;;;;;;259.30;246.48;;;;;;;;;;5045895;28;20033;-70
2022/07/10 06:06:52;;;;;;;270.17;256.75;;;;;;;;;;5045585;28;20158;-69
2022/07/10 06:09:19;;;;;;;264.48;251.57;;;;;;;;;;5046227;28;20032;-69
2022/07/10 06:11:45;;;;;;;278.38;264.73;;;;;;;;;;5042367;28;20091;-69
2022/07/10 06:14:12;;;;;;;270.05;256.75;;;;;;;;;;5044737;28;20534;-69
2022/07/10 06:16:37;;;;;;;246.90;234.82;;;;;;;;;;5046560;28;20025;-69
2022/07/10 06:19:03;;;;;;;268.48;255.15;;;;;;;;;;5045512;28;20039;-69
2022/07/10 06:21:28;;;;;;;220.30;209.55;;;;;;;;;;5045766;28;20039;-70
2022/07/10 06:23:53;;;;;;;268.13;254.88;;;;;;;;;;5045099;28;20051;-70
2022/07/10 06:26:19;;;;;;;211.88;201.30;;;;;;;;;;5044449;28;20115;-70
2022/07/10 06:28:44;;;;;;;240.45;228.60;;;;;;;;;;5042970;28;20037;-70
2022/07/10 06:31:10;;;;;;;295.10;280.52;;;;;;;;;;5045042;28;20025;-69
2022/07/10 06:33:35;;;;;;;172.45;163.77;;;;;;;;;;5043897;28;20104;-73
2022/07/10 06:36:01;;;;;;;221.35;210.32;;;;;;;;;;5045935;28;20089;-70
2022/07/10 06:38:26;;;;;;;241.85;229.98;;;;;;;;;;5045753;28;20463;-70
2022/07/10 06:40:52;;;;;;;258.27;245.63;;;;;;;;;;5045946;28;20029;-69
2022/07/10 06:43:17;;;;;;;203.48;193.50;;;;;;;;;;5033660;28;20115;-70
2022/07/10 06:45:43;;;;;;;122.10;116.00;;;;;;;;;;5042567;28;20040;-69
2022/07/10 06:48:10;;;;;;;39.67;37.65;;;;;;;;;;5052621;28;20055;-70
2022/07/10 06:50:35;;;;;;;63.75;60.58;;;;;;;;;;5044508;28;20037;-70
2022/07/10 06:53:01;;;;;;;61.30;58.20;;;;;;;;;;5044333;28;20032;-67
2022/07/10 06:55:27;;;;;;;38.75;36.72;;;;;;;;;;5042686;28;20036;-67
2022/07/10 06:57:55;;;;;;;85.85;81.60;;;;;;;;;;5046397;28;20033;-67
2022/07/10 07:00:20;;;;;;;51.35;48.75;;;;;;;;;;5046563;28;20036;-69
2022/07/10 07:02:46;;;;;;;32.85;31.15;;;;;;;;;;5045597;28;20048;-68
2022/07/10 07:05:12;;;;;;;29.40;27.88;;;;;;;;;;5044915;28;20025;-68
2022/07/10 07:07:37;;;;;;;47.08;44.67;;;;;;;;;;5045687;28;20025;-68
2022/07/10 07:10:04;;;;;;;23.33;22.02;;;;;;;;;;5045805;28;20043;-68
2022/07/10 07:12:30;;;;;;;46.42;44.08;;;;;;;;;;5045543;28;20036;-68
2022/07/10 07:14:55;;;;;;;32.25;30.55;;;;;;;;;;5045971;28;20025;-68
2022/07/10 07:17:21;;;;;;;34.25;32.45;;;;;;;;;;5043392;28;20388;-67
2022/07/10 07:25:16;;;;;;;63.90;60.70;;;;;;;;;;5045179;28;20078;-67
2022/07/10 07:27:42;;;;;;;55.88;53.05;;;;;;;;;;5048974;28;20036;-67
2022/07/10 07:30:10;;;;;;;58.22;55.30;;;;;;;;;;5049324;28;20667;-66
2022/07/10 07:32:37;;;;;;;48.70;46.25;;;;;;;;;;5049255;28;20037;-67
2022/07/10 07:35:03;;;;;;;35.80;33.95;;;;;;;;;;5049628;28;20044;-68
2022/07/10 07:37:36;;;;;;;32.78;30.92;;;;;;;;;;5048227;28;20044;-67
2022/07/10 07:40:02;;;;;;;40.10;38.03;;;;;;;;;;5049803;28;20633;-67
2022/07/10 07:42:27;;;;;;;34.88;32.85;;;;;;;;;;5050565;28;20792;-67
2022/07/10 07:44:52;;;;;;;34.75;32.95;;;;;;;;;;5048126;28;20487;-68
2022/07/10 07:47:18;;;;;;;41.78;39.65;;;;;;;;;;5049773;28;20056;-68
2022/07/10 07:49:43;;;;;;;28.42;26.92;;;;;;;;;;5049788;28;20051;-68
2022/07/10 07:52:08;;;;;;;21.40;20.25;;;;;;;;;;5049465;28;20036;-68
2022/07/10 07:54:34;;;;;;;29.15;27.65;;;;;;;;;;5048495;28;20041;-75
2022/07/10 07:56:59;;;;;;;90.97;86.30;;;;;;;;;;5049067;28;20052;-68
2022/07/10 07:59:24;;;;;;;47.13;44.72;;;;;;;;;;5047767;28;20037;-68
2022/07/10 08:01:50;;;;;;;23.30;22.08;;;;;;;;;;5048603;28;20052;-68
2022/07/10 08:04:15;;;;;;;28.10;26.63;;;;;;;;;;5048909;28;20025;-68
2022/07/10 08:06:40;;;;;;;25.33;23.98;;;;;;;;;;5049014;28;20025;-68
2022/07/10 08:09:06;;;;;;;26.30;24.90;;;;;;;;;;5049274;28;20477;-68
2022/07/10 08:11:31;;;;;;;26.13;24.77;;;;;;;;;;5047587;28;20029;-67
2022/07/10 08:13:56;;;;;;;27.23;25.80;;;;;;;;;;5049154;28;20032;-67
2022/07/10 08:16:22;;;;;;;29.70;28.13;;;;;;;;;;5049473;28;20033;-67
2022/07/10 08:18:47;;;;;;;25.60;24.27;;;;;;;;;;5047693;28;20040;-68
2022/07/10 08:21:12;;;;;;;34.05;32.33;;;;;;;;;;5045530;28;20040;-68
2022/07/10 08:23:38;;;;;;;26.88;25.42;;;;;;;;;;5048915;28;20400;-69
2022/07/10 08:26:04;;;;;;;25.63;24.27;;;;;;;;;;5049090;28;20033;-71
2022/07/10 08:28:29;;;;;;;32.35;30.67;;;;;;;;;;5047530;28;20021;-71
2022/07/10 08:30:54;;;;;;;27.08;25.67;;;;;;;;;;5047763;28;20092;-71
2022/07/10 08:33:20;;;;;;;29.23;27.73;;;;;;;;;;5049161;28;20025;-70
2022/07/10 08:35:46;;;;;;;31.00;29.33;;;;;;;;;;5047527;28;20055;-72
2022/07/10 08:38:12;;;;;;;29.27;27.77;;;;;;;;;;5047070;28;20103;-73
2022/07/10 08:40:38;;;;;;;33.90;31.98;;;;;;;;;;5046864;28;20037;-73
2022/07/10 08:43:04;;;;;;;24.17;22.88;;;;;;;;;;5048628;28;20033;-72
2022/07/10 08:45:35;;;;;;;24.05;22.75;;;;;;;;;;5048157;28;20438;-71
2022/07/10 08:48:04;;;;;;;28.38;26.88;;;;;;;;;;5048830;28;20025;-73
2022/07/10 08:50:33;;;;;;;31.20;29.60;;;;;;;;;;5047930;28;20039;-72
2022/07/10 08:53:12;;;;;;;27.52;26.10;;;;;;;;;;5048010;28;20025;-72
2022/07/10 08:55:37;;;;;;;24.33;23.02;;;;;;;;;;5046131;28;20039;-69
2022/07/10 08:58:04;;;;;;;23.27;22.05;;;;;;;;;;5047895;28;20048;-71
2022/07/10 09:00:30;;;;;;;26.23;24.85;;;;;;;;;;5048718;28;20032;-73
2022/07/10 09:02:56;;;;;;;29.80;28.25;;;;;;;;;;5047628;28;20510;-70
2022/07/10 09:05:23;;;;;;;37.40;35.50;;;;;;;;;;5046913;28;20029;-73
2022/07/10 09:07:49;;;;;;;34.22;32.42;;;;;;;;;;5047885;28;20029;-72
2022/07/10 09:10:14;;;;;;;36.35;34.45;;;;;;;;;;5047143;28;20021;-72
2022/07/10 09:13:01;;;;;;;32.60;30.85;;;;;;;;;;5047407;28;20021;-71
2022/07/10 09:15:30;;;;;;;35.60;33.80;;;;;;;;;;5046494;28;20044;-71
2022/07/10 09:18:07;;;;;;;35.22;33.33;;;;;;;;;;5048342;28;20035;-72
2022/07/10 09:20:37;;;;;;;36.38;34.50;;;;;;;;;;5047759;28;20037;-72
2022/07/10 09:23:17;;;;;;;36.63;34.72;;;;;;;;;;5047288;28;20025;-72
2022/07/10 09:25:43;;;;;;;30.00;28.40;;;;;;;;;;5047502;28;20127;-72
2022/07/10 09:28:08;;;;;;;29.27;27.77;;;;;;;;;;5046656;28;20060;-72
2022/07/10 09:30:38;;;;;;;27.77;26.30;;;;;;;;;;5045864;28;20504;-70
2022/07/10 09:33:26;;;;;;;30.05;28.45;;;;;;;;;;5047500;28;20029;-73
2022/07/10 09:36:13;;;;;;;40.92;38.83;;;;;;;;;;5047646;28;20534;-72
2022/07/10 09:38:44;;;;;;;28.67;27.17;;;;;;;;;;5046307;28;20028;-72
2022/07/10 09:41:16;;;;;;;40.38;38.30;;;;;;;;;;5047549;28;20033;-71
2022/07/10 09:43:59;;;;;;;46.85;44.45;;;;;;;;;;5047155;28;20037;-72
2022/07/10 09:46:27;;;;;;;35.53;33.70;;;;;;;;;;5045895;28;20037;-70
2022/07/10 09:49:01;;;;;;;37.90;35.97;;;;;;;;;;5045112;28;20389;-72
2022/07/10 09:51:33;;;;;;;71.50;67.93;;;;;;;;;;5046374;28;20037;-71
2022/07/10 09:54:04;;;;;;;47.60;45.17;;;;;;;;;;5046457;28;20086;-72
2022/07/10 09:56:43;;;;;;;;;;;;;;;;;;5047001;28;20029;-71
2022/07/10 09:59:11;;;;;;;34.05;32.22;;;;;;;;;;5046859;28;19962;-72
2022/07/10 10:01:40;;;;;;;38.05;36.05;;;;;;;;;;5045776;28;20047;-72
2022/07/10 10:04:06;;;;;;;61.20;58.10;;;;;;;;;;5046941;28;20513;-71
2022/07/10 10:06:33;;;;;;;60.55;57.45;;;;;;;;;;5045560;28;20106;-72
2022/07/10 10:09:37;;;;;;;39.42;37.42;;;;;;;;;;5046812;28;20469;-69
2022/07/10 10:12:08;;;;;;;44.22;41.97;;;;;;;;;;5046346;28;20470;-71
2022/07/10 10:14:34;;;;;;;26.50;25.10;;;;;;;;;;5046191;28;20036;-68
2022/07/10 10:17:00;;;;;;;26.02;24.65;;;;;;;;;;5046836;28;20494;-70
2022/07/10 10:22:13;;;;;;;48.00;45.55;;;;;;;;;;5045870;28;20366;-71
2022/07/10 10:24:39;;;;;;;89.80;85.05;;;;;;;;;;5046081;28;20040;-69
2022/07/10 10:27:05;;;;;;;43.50;41.20;;;;;;;;;;5047213;28;20404;-72
2022/07/10 10:29:31;;;;;;;52.78;49.90;;;;;;;;;;5045888;28;20123;-70
2022/07/10 10:31:57;;;;;;;77.78;73.90;;;;;;;;;;5046846;28;20029;-70
2022/07/10 10:34:40;;;;;;;67.53;64.13;;;;;;;;;;5046320;28;20036;-70
2022/07/10 10:37:07;;;;;;;53.67;50.85;;;;;;;;;;5045830;28;20017;-70
2022/07/10 10:39:51;;;;;;;130.10;123.63;;;;;;;;;;5044378;28;20623;-70
2022/07/10 10:42:34;;;;;;;60.97;57.90;;;;;;;;;;5046645;28;20052;-70
2022/07/10 10:45:36;;;;;;;53.47;50.47;;;;;;;;;;5045237;28;20068;-71
2022/07/10 10:48:09;;;;;;;27.25;25.75;;;;;;;;;;4962273;28;20042;-71
2022/07/10 10:50:48;;;;;;;86.15;81.70;;;;;;;;;;5033273;28;20055;-71
2022/07/10 10:53:16;;;;;;;77.53;73.55;;;;;;;;;;5043954;28;20020;-70
2022/07/10 10:56:03;;;;;;;41.67;39.38;;;;;;;;;;5043669;28;20041;-72
2022/07/10 10:58:36;;;;;;;64.50;61.17;;;;;;;;;;5045412;28;20421;-70
2022/07/10 11:01:04;;;;;;;62.47;59.28;;;;;;;;;;5045807;28;20036;-70
2022/07/10 11:03:29;;;;;;;88.60;84.13;;;;;;;;;;5045085;28;20148;-70
2022/07/10 11:05:54;;;;;;;76.72;72.82;;;;;;;;;;5044565;28;20352;-69
2022/07/10 11:08:40;;;;;;;40.50;38.40;;;;;;;;;;5045332;28;20075;-68
2022/07/10 11:11:30;;;;;;;54.65;51.88;;;;;;;;;;5044849;28;20489;-70
2022/07/10 11:13:59;;;;;;;56.25;53.33;;;;;;;;;;5045078;28;20055;-71
2022/07/10 11:16:24;;;;;;;29.83;28.23;;;;;;;;;;5045839;28;20639;-73
2022/07/10 11:18:54;;;;;;;59.90;56.92;;;;;;;;;;5043905;28;20116;-68
2022/07/10 11:21:25;;;;;;;100.85;95.82;;;;;;;;;;5044721;28;20554;-69
2022/07/10 11:24:35;;;;;;;53.08;50.30;;;;;;;;;;5044900;28;20037;-70
2022/07/10 11:27:26;;;;;;;23.50;22.20;;;;;;;;;;5027521;28;20037;-70
2022/07/10 11:30:01;;;;;;;36.60;34.70;;;;;;;;;;5044367;28;20120;-73
2022/07/10 11:32:28;;;;;;;42.08;39.85;;;;;;;;;;5044281;28;20676;-73
2022/07/10 11:34:55;;;;;;;78.95;74.97;;;;;;;;;;5045805;28;20094;-72
2022/07/10 11:37:20;;;;;;;43.80;41.53;;;;;;;;;;5041158;28;20092;-71
2022/07/10 11:39:46;;;;;;;101.50;96.45;;;;;;;;;;5042639;28;20488;-71
2022/07/10 11:42:11;;;;;;;67.32;63.85;;;;;;;;;;5039758;28;20091;-72
2022/07/10 11:44:36;;;;;;;51.80;49.03;;;;;;;;;;5041199;28;20037;-71
2022/07/10 11:47:03;;;;;;;175.80;167.07;;;;;;;;;;5044653;28;20021;-70
2022/07/10 11:49:29;;;;;;;184.32;175.18;;;;;;;;;;5043936;28;20047;-71
2022/07/10 11:52:00;;;;;;;200.68;190.75;;;;;;;;;;5044698;28;20021;-70
2022/07/10 11:54:25;;;;;;;206.55;196.30;;;;;;;;;;5045062;28;20033;-70
2022/07/10 11:56:52;;;;;;;205.35;195.23;;;;;;;;;;5044088;28;20052;-71
2022/07/10 11:59:23;;;;;;;190.32;180.85;;;;;;;;;;5044825;28;20033;-71
2022/07/10 12:01:50;;;;;;;203.77;193.60;;;;;;;;;;5044698;28;20087;-70
2022/07/10 12:04:18;;;;;;;208.38;198.15;;;;;;;;;;5044963;28;20508;-70
2022/07/10 12:06:45;;;;;;;178.35;169.52;;;;;;;;;;5043168;28;20033;-71
2022/07/10 12:09:13;;;;;;;173.65;165.02;;;;;;;;;;5043819;28;20029;-71
2022/07/10 12:11:40;;;;;;;151.90;144.15;;;;;;;;;;5043781;28;20029;-71
2022/07/10 12:14:20;;;;;;;91.15;86.55;;;;;;;;;;5049939;28;20029;-71
2022/07/10 12:16:47;;;;;;;94.97;90.22;;;;;;;;;;5048213;28;20098;-71
2022/07/10 12:19:15;;;;;;;76.72;72.82;;;;;;;;;;5048686;28;20063;-71
2022/07/10 12:21:41;;;;;;;84.53;80.22;;;;;;;;;;5047672;28;20429;-71
2022/07/10 12:24:07;;;;;;;120.45;114.47;;;;;;;;;;5048177;28;20037;-71
2022/07/10 12:26:37;;;;;;;164.75;156.48;;;;;;;;;;5047463;28;20098;-71
2022/07/10 12:29:04;;;;;;;181.50;172.48;;;;;;;;;;5049272;28;20390;-71
2022/07/10 12:31:31;;;;;;;204.73;194.65;;;;;;;;;;5047056;28;20029;-71
2022/07/10 12:34:04;;;;;;;66.60;63.17;;;;;;;;;;5048710;28;20033;-71
2022/07/10 12:36:50;;;;;;;178.98;170.07;;;;;;;;;;5047158;28;20028;-69
2022/07/10 12:39:24;;;;;;;170.52;162.02;;;;;;;;;;5048509;28;20025;-69
2022/07/10 12:42:05;;;;;;;155.43;147.70;;;;;;;;;;5048731;28;20056;-70
2022/07/10 12:44:43;;;;;;;186.98;177.68;;;;;;;;;;5048374;28;20087;-70
2022/07/10 12:47:13;;;;;;;147.48;140.07;;;;;;;;;;5047946;28;20033;-70
2022/07/10 12:49:48;;;;;;;;;;;;;;;;;;5048468;28;20054;-70
2022/07/10 12:52:21;;;;;;;163.32;155.23;;;;;;;;;;5047443;28;19923;-68
2022/07/10 12:54:46;;;;;;;176.82;168.02;;;;;;;;;;5047959;28;20029;-68
2022/07/10 12:57:12;;;;;;;179.30;170.43;;;;;;;;;;5048254;28;20737;-69
2022/07/10 12:59:37;;;;;;;172.40;163.82;;;;;;;;;;5048647;28;20031;-69
2022/07/10 13:02:19;;;;;;;157.50;149.63;;;;;;;;;;5048035;28;20021;-69
2022/07/10 13:04:56;;;;;;;163.68;155.55;;;;;;;;;;5048128;28;20029;-69
2022/07/10 13:07:32;;;;;;;147.40;140.07;;;;;;;;;;5047047;28;20047;-69
2022/07/10 13:10:05;;;;;;;137.98;130.93;;;;;;;;;;5047445;28;20056;-69
2022/07/10 13:12:34;;;;;;;172.90;164.30;;;;;;;;;;5046877;28;20048;-69
2022/07/10 13:15:02;;;;;;;172.02;163.45;;;;;;;;;;5047748;28;20025;-68
2022/07/10 13:17:28;;;;;;;168.10;159.68;;;;;;;;;;5046803;28;20029;-69
2022/07/10 13:19:54;;;;;;;159.82;151.75;;;;;;;;;;5046290;28;20033;-69
2022/07/10 13:22:20;;;;;;;180.00;171.00;;;;;;;;;;5046490;28;20379;-69
2022/07/10 13:24:45;;;;;;;174.98;166.20;;;;;;;;;;5047163;28;20033;-68
2022/07/10 13:27:10;;;;;;;176.40;167.60;;;;;;;;;;5045880;28;20025;-68
2022/07/10 13:29:36;;;;;;;163.45;155.18;;;;;;;;;;5046391;28;20417;-68
2022/07/10 13:32:02;;;;;;;165.38;157.10;;;;;;;;;;5047414;28;20032;-69
2022/07/10 13:34:27;;;;;;;152.45;144.77;;;;;;;;;;5047216;28;20398;-69
2022/07/10 13:36:55;;;;;;;142.25;135.07;;;;;;;;;;5047880;28;20036;-67
2022/07/10 13:39:20;;;;;;;157.85;149.85;;;;;;;;;;5047085;28;20606;-68
2022/07/10 13:41:45;;;;;;;165.20;156.88;;;;;;;;;;5046207;28;20119;-69
2022/07/10 13:44:11;;;;;;;143.65;136.40;;;;;;;;;;5047428;28;20039;-70
2022/07/10 13:46:37;;;;;;;153.85;146.13;;;;;;;;;;5046888;28;20040;-67
2022/07/10 13:49:03;;;;;;;143.65;136.48;;;;;;;;;;5046843;28;20099;-67
2022/07/10 13:51:29;;;;;;;165.88;157.63;;;;;;;;;;5047507;28;20062;-68
2022/07/10 13:53:54;;;;;;;144.50;137.25;;;;;;;;;;5047010;28;20033;-71
2022/07/10 13:56:20;;;;;;;150.65;143.02;;;;;;;;;;5029138;28;20658;-67
2022/07/10 13:58:46;;;;;;;150.18;142.55;;;;;;;;;;5045926;28;20067;-66
2022/07/10 14:01:11;;;;;;;132.77;126.03;;;;;;;;;;5047462;28;20451;-67
2022/07/10 14:03:36;;;;;;;149.55;141.98;;;;;;;;;;5046159;28;20048;-69
2022/07/10 14:06:02;;;;;;;155.05;147.23;;;;;;;;;;5047518;28;20020;-64
2022/07/10 14:08:27;;;;;;;138.25;131.23;;;;;;;;;;5046994;28;20099;-65
2022/07/10 14:10:53;;;;;;;163.52;155.25;;;;;;;;;;5045721;28;20479;-67
2022/07/10 14:13:19;;;;;;;141.10;134.02;;;;;;;;;;5046103;28;20055;-66
2022/07/10 14:15:44;;;;;;;153.90;146.15;;;;;;;;;;5044791;28;20033;-70
2022/07/10 14:18:10;;;;;;;152.35;144.73;;;;;;;;;;5046475;28;20055;-70
2022/07/10 14:23:20;;;;;;;135.02;128.30;;;;;;;;;;5045720;28;20033;-71
2022/07/10 14:25:46;;;;;;;132.40;125.80;;;;;;;;;;5047082;28;20029;-71
2022/07/10 14:28:13;;;;;;;151.88;144.35;;;;;;;;;;5046038;28;20406;-71